Time;durP1;ratioP1;P1;durP2;ratioP2;P2;SDS_P1;SDS_P2;PMS_P1;PMS_P2;Temp;Humidity;BMP_temperature;BMP_pressure;BME280_temperature;BME280_humidity;BME280_pressure;Samples;Min_cycle;Max_cycle;Signal;HPM_P1;HPM_P2
2021/01/25 00:01:40;;;;;;;34.48;20.48;;;;;;;1.20;85.22;98567.06;1773280;79;26288;-78
2021/01/25 00:04:06;;;;;;;35.92;21.52;;;;;;;1.23;85.40;98562.93;1775225;79;26471;-78
2021/01/25 00:06:33;;;;;;;38.05;21.90;;;;;;;1.23;85.30;98556.50;1775891;79;26274;-79
2021/01/25 00:08:59;;;;;;;36.80;22.52;;;;;;;1.26;85.53;98560.05;1772591;79;25879;-78
2021/01/25 00:11:25;;;;;;;38.20;21.82;;;;;;;1.31;85.64;98559.13;1772210;79;26450;-79
2021/01/25 00:13:52;;;;;;;35.03;20.05;;;;;;;1.33;85.58;98559.76;1773471;79;25528;-78
2021/01/25 00:16:18;;;;;;;33.70;21.80;;;;;;;1.32;85.46;98560.25;1754194;79;25822;-79
2021/01/25 00:18:44;;;;;;;29.42;19.00;;;;;;;1.30;85.32;98554.92;1774929;79;25679;-80
2021/01/25 00:21:10;;;;;;;36.28;20.02;;;;;;;1.27;85.15;98556.51;1772186;79;26128;-78
2021/01/25 00:23:37;;;;;;;33.02;20.82;;;;;;;1.23;85.08;98556.01;1771920;79;26068;-77
2021/01/25 00:26:03;;;;;;;36.60;21.57;;;;;;;1.21;85.06;98561.78;1771652;79;25880;-79
2021/01/25 00:28:29;;;;;;;31.65;20.45;;;;;;;1.18;84.87;98573.66;1769632;79;26546;-78
2021/01/25 00:30:56;;;;;;;36.73;21.82;;;;;;;1.18;84.87;98573.66;1775079;79;25966;-78
2021/01/25 00:33:22;;;;;;;32.50;21.62;;;;;;;1.16;84.94;98577.34;1777158;79;26555;-78
2021/01/25 00:35:48;;;;;;;31.50;20.88;;;;;;;1.09;85.01;98575.37;1771147;79;25838;-79
2021/01/25 00:38:15;;;;;;;34.63;20.50;;;;;;;1.10;85.10;98573.59;1774876;79;26429;-78
2021/01/25 00:40:41;;;;;;;32.88;19.50;;;;;;;1.10;85.31;98573.59;1775891;79;26399;-80
2021/01/25 00:43:08;;;;;;;28.95;18.02;;;;;;;1.14;85.41;98577.95;1775970;79;26169;-78
2021/01/25 00:45:34;;;;;;;32.05;19.65;;;;;;;1.18;85.46;98578.00;1773083;79;26310;-78
2021/01/25 00:48:00;;;;;;;33.23;19.98;;;;;;;1.24;85.58;98577.40;1771691;79;25823;-78
2021/01/25 00:50:27;;;;;;;33.25;21.48;;;;;;;1.33;85.72;98571.34;1772567;79;26331;-78
2021/01/25 00:52:53;;;;;;;34.55;20.60;;;;;;;1.36;85.61;98574.09;1777485;79;25938;-78
2021/01/25 00:55:21;;;;;;;34.95;20.72;;;;;;;1.37;85.53;98577.02;1776783;78;25783;-78
2021/01/25 00:57:49;;;;;;;30.40;18.67;;;;;;;1.35;85.60;98577.16;1773123;79;42648;-79
2021/01/25 01:00:17;;;;;;;29.72;19.55;;;;;;;1.34;85.59;98579.41;1775964;79;26407;-78
2021/01/25 01:02:44;;;;;;;29.65;18.48;;;;;;;1.38;85.69;98576.05;1774261;79;25513;-79
2021/01/25 01:05:11;;;;;;;28.92;17.32;;;;;;;1.41;85.65;98578.31;1774166;79;25939;-78
2021/01/25 01:07:38;;;;;;;28.45;18.27;;;;;;;1.44;85.63;98576.72;1775016;79;25917;-78
2021/01/25 01:10:06;;;;;;;28.23;18.50;;;;;;;1.46;85.58;98579.48;1778280;79;25694;-78
2021/01/25 01:12:33;;;;;;;30.08;18.20;;;;;;;1.51;85.67;98587.56;1776155;79;26005;-80
2021/01/25 01:14:59;;;;;;;30.20;20.12;;;;;;;1.52;85.56;98590.45;1722442;81;26472;-79
2021/01/25 01:17:25;;;;;;;28.77;18.27;;;;;;;1.51;85.53;98582.89;1747890;80;25758;-78
2021/01/25 01:19:52;;;;;;;29.50;18.15;;;;;;;1.51;85.55;98590.63;1746250;80;26396;-77
2021/01/25 01:22:20;;;;;;;30.02;17.77;;;;;;;1.54;85.71;98594.98;1746419;80;26377;-78
2021/01/25 01:24:46;;;;;;;30.08;17.92;;;;;;;1.54;85.50;98592.41;1747670;80;26343;-79
2021/01/25 01:27:12;;;;;;;29.85;18.67;;;;;;;1.60;85.63;98603.06;1748639;80;25749;-79
2021/01/25 01:29:38;;;;;;;28.00;18.05;;;;;;;1.63;85.54;98595.83;1746180;80;26397;-80
2021/01/25 01:32:05;;;;;;;27.48;18.15;;;;;;;1.67;85.33;98604.08;1748005;80;25894;-79
2021/01/25 01:34:31;;;;;;;31.40;18.85;;;;;;;1.63;85.21;98595.03;1748851;80;26353;-78
2021/01/25 01:36:57;;;;;;;31.55;20.10;;;;;;;1.60;85.25;98597.42;1746595;80;25898;-78
2021/01/25 01:39:24;;;;;;;30.35;18.82;;;;;;;1.58;85.30;98590.81;1723050;81;25747;-78
2021/01/25 01:41:50;;;;;;;24.25;16.25;;;;;;;1.58;85.33;98590.33;1746853;80;26494;-80
2021/01/25 01:44:16;;;;;;;26.15;17.95;;;;;;;1.59;85.37;98589.39;1749785;80;26560;-77
2021/01/25 01:46:44;;;;;;;29.18;18.48;;;;;;;1.61;85.42;98592.63;1721735;81;26134;-78
2021/01/25 01:49:14;;;;;;;28.10;18.45;;;;;;;1.64;85.35;98589.74;1743475;80;25921;-78
2021/01/25 01:51:41;;;;;;;29.42;18.80;;;;;;;1.63;85.26;98595.03;1745842;80;26562;-77
2021/01/25 01:54:08;;;;;;;29.10;17.02;;;;;;;1.66;85.33;98598.59;1746848;80;25863;-79
2021/01/25 01:56:35;;;;;;;29.32;19.05;;;;;;;1.69;85.31;98598.28;1713289;82;26441;-79
2021/01/25 01:59:02;;;;;;;32.03;20.35;;;;;;;1.68;85.24;98601.34;1701660;82;25970;-79
2021/01/25 02:01:29;;;;;;;31.90;19.75;;;;;;;1.66;85.18;98585.71;1772420;79;25925;-78
2021/01/25 02:03:57;;;;;;;27.17;17.95;;;;;;;1.67;85.31;98590.72;1775904;79;25800;-78
2021/01/25 02:06:25;;;;;;;31.85;17.12;;;;;;;1.72;85.33;98587.70;1775286;78;26493;-78
2021/01/25 02:08:54;;;;;;;34.20;18.95;;;;;;;1.72;85.23;98594.14;1772820;79;26213;-78
2021/01/25 02:11:21;;;;;;;26.42;16.80;;;;;;;1.72;85.19;98600.58;1775698;78;25727;-78
2021/01/25 02:13:49;;;;;;;29.80;18.32;;;;;;;1.77;85.21;98600.91;1773203;79;26508;-79
2021/01/25 02:16:15;;;;;;;30.20;18.37;;;;;;;1.81;85.19;98598.85;1772416;79;26725;-78
2021/01/25 02:18:41;;;;;;;31.97;18.82;;;;;;;1.85;85.15;98598.37;1724158;80;25985;-78
2021/01/25 02:21:12;;;;;;;29.90;19.27;;;;;;;1.87;85.06;98609.34;1777488;79;26382;-79
2021/01/25 02:24:14;;;;;;;30.48;17.98;;;;;;;1.86;85.01;98605.16;1772855;79;25760;-78
2021/01/25 02:27:22;;;;;;;31.95;17.73;;;;;;;1.80;85.31;98604.95;1706161;81;25915;-78
2021/01/25 02:29:49;;;;;;;30.68;17.85;;;;;;;1.80;85.31;98604.95;1728572;81;25864;-79
2021/01/25 02:32:15;;;;;;;30.17;18.50;;;;;;;1.77;84.89;98609.92;1729608;81;25991;-78
2021/01/25 02:34:42;;;;;;;29.40;18.17;;;;;;;1.77;84.99;98599.62;1726205;81;25864;-78
2021/01/25 02:37:10;;;;;;;31.57;18.77;;;;;;;1.81;85.06;98603.52;1730018;81;26006;-79
2021/01/25 02:39:37;;;;;;;30.00;19.55;;;;;;;1.84;84.89;98607.56;1703185;81;25856;-78
2021/01/25 02:42:05;;;;;;;29.20;18.42;;;;;;;1.86;84.96;98606.45;1702042;81;25924;-79
2021/01/25 02:44:34;;;;;;;27.77;19.48;;;;;;;1.87;84.81;98610.62;1701140;81;25904;-78
2021/01/25 02:47:01;;;;;;;27.87;18.85;;;;;;;1.84;84.77;98609.64;1729731;81;26160;-77
2021/01/25 02:49:27;;;;;;;29.98;19.27;;;;;;;1.83;84.75;98608.50;1730495;81;25862;-78
2021/01/25 02:51:53;;;;;;;28.85;18.17;;;;;;;1.80;84.85;98609.64;1727077;81;26616;-79
2021/01/25 02:54:20;;;;;;;31.10;18.20;;;;;;;1.78;84.67;98610.27;1728578;81;26649;-77
2021/01/25 02:56:48;;;;;;;30.57;19.77;;;;;;;1.76;84.55;98611.69;1728240;81;25828;-77
2021/01/25 02:59:16;;;;;;;26.35;18.23;;;;;;;1.72;84.64;98611.69;1730845;81;25956;-78
2021/01/25 03:01:45;;;;;;;28.10;18.30;;;;;;;1.71;84.69;98607.47;1731428;81;25901;-77
2021/01/25 03:04:12;;;;;;;31.02;19.62;;;;;;;1.73;85.05;98611.20;1766476;79;25896;-77
2021/01/25 03:06:43;;;;;;;28.83;16.70;;;;;;;1.73;85.05;98611.20;1778724;78;25857;-77
2021/01/25 03:09:09;;;;;;;30.08;17.87;;;;;;;1.73;84.83;98606.05;1771859;78;26313;-79
2021/01/25 03:11:40;;;;;;;29.82;17.95;;;;;;;1.74;84.87;98608.45;1775033;78;26704;-78
2021/01/25 03:14:10;;;;;;;27.73;16.48;;;;;;;1.75;84.77;98610.09;1774768;78;25644;-79
2021/01/25 03:16:36;;;;;;;27.67;16.82;;;;;;;1.73;84.63;98606.84;1776184;78;26825;-76
2021/01/25 03:19:04;;;;;;;25.70;16.75;;;;;;;1.76;84.75;98616.04;1775466;78;25504;-77
2021/01/25 03:21:36;;;;;;;29.90;18.52;;;;;;;1.76;84.60;98615.55;1775993;78;25808;-77
2021/01/25 03:24:01;;;;;;;28.90;18.77;;;;;;;1.78;84.70;98620.08;1774128;78;25530;-77
2021/01/25 03:26:28;;;;;;;28.75;18.25;;;;;;;1.81;84.67;98615.59;1769358;79;25567;-77
2021/01/25 03:28:54;;;;;;;30.97;19.67;;;;;;;1.83;84.73;98610.62;1755627;79;26455;-77
2021/01/25 03:31:20;;;;;;;30.70;18.77;;;;;;;1.84;84.73;98612.22;1752804;79;25994;-77
2021/01/25 03:33:46;;;;;;;33.30;19.00;;;;;;;1.85;84.88;98618.98;1768159;79;26349;-78
2021/01/25 03:36:13;;;;;;;30.23;17.55;;;;;;;1.85;84.88;98618.98;1756653;79;26371;-77
2021/01/25 03:38:39;;;;;;;28.90;18.00;;;;;;;1.88;84.79;98618.70;1758168;79;25886;-76
2021/01/25 03:41:05;;;;;;;24.57;17.77;;;;;;;1.94;84.81;98615.51;1757357;79;26574;-77
2021/01/25 03:43:31;;;;;;;29.20;18.40;;;;;;;1.99;84.58;98618.89;1757362;79;26273;-77
2021/01/25 03:45:58;;;;;;;29.42;18.70;;;;;;;1.99;84.46;98622.30;1755686;79;25923;-78
2021/01/25 03:48:24;;;;;;;31.25;18.80;;;;;;;2.00;84.49;98619.23;1753628;79;25803;-77
2021/01/25 03:50:51;;;;;;;28.35;18.55;;;;;;;2.01;84.52;98624.70;1758312;79;25795;-78
2021/01/25 03:53:17;;;;;;;26.27;18.57;;;;;;;2.03;84.58;98625.37;1758518;79;26642;-78
2021/01/25 03:55:46;;;;;;;27.65;18.65;;;;;;;2.01;84.53;98618.27;1758151;79;25880;-77
2021/01/25 03:58:13;;;;;;;25.75;16.70;;;;;;;1.99;84.24;98627.91;1756012;79;26037;-77
2021/01/25 04:00:39;;;;;;;27.52;17.52;;;;;;;1.99;84.24;98627.91;1732944;80;25483;-77
2021/01/25 04:03:06;;;;;;;28.07;17.60;;;;;;;2.02;84.58;98635.81;1742781;80;25782;-77
2021/01/25 04:05:32;;;;;;;27.35;17.07;;;;;;;2.00;84.47;98635.50;1753626;80;25856;-79
2021/01/25 04:07:58;;;;;;;28.55;17.70;;;;;;;2.08;84.51;98639.89;1737230;80;26511;-78
2021/01/25 04:10:25;;;;;;;28.07;18.85;;;;;;;1.99;84.34;98627.45;1741554;80;25801;-77
2021/01/25 04:12:51;;;;;;;27.67;18.07;;;;;;;2.10;84.33;98647.00;1732505;81;25926;-78
2021/01/25 04:15:17;;;;;;;28.05;17.75;;;;;;;2.13;84.32;98650.55;1689790;83;25818;-78
2021/01/25 04:17:44;;;;;;;31.52;18.30;;;;;;;2.14;84.26;98651.35;1750757;80;25859;-78
2021/01/25 04:20:11;;;;;;;27.45;18.10;;;;;;;2.09;84.25;98659.53;1766803;79;25814;-77
2021/01/25 04:22:37;;;;;;;27.02;16.87;;;;;;;2.07;84.28;98657.58;1766549;79;25816;-78
2021/01/25 04:25:07;;;;;;;25.60;16.25;;;;;;;2.07;84.28;98657.58;1768277;79;25902;-78
2021/01/25 04:27:35;;;;;;;24.10;16.60;;;;;;;2.08;84.30;98654.06;1759540;79;25796;-79
2021/01/25 04:30:07;;;;;;;29.87;16.35;;;;;;;2.09;84.21;98660.02;1756731;79;26439;-77
2021/01/25 04:32:35;;;;;;;26.00;17.50;;;;;;;2.08;83.87;98658.42;1757478;79;25859;-78
2021/01/25 04:35:05;;;;;;;25.27;17.02;;;;;;;2.01;84.38;98642.74;1756657;79;25554;-78
2021/01/25 04:37:32;;;;;;;27.67;18.15;;;;;;;2.01;84.38;98642.74;1759019;79;25783;-78
2021/01/25 04:39:58;;;;;;;27.02;18.05;;;;;;;2.00;84.09;98641.14;1755970;79;25847;-77
2021/01/25 04:42:26;;;;;;;27.62;17.85;;;;;;;2.14;84.23;98658.59;1759484;80;26195;-77
2021/01/25 04:44:53;;;;;;;26.37;17.32;;;;;;;2.14;84.16;98654.73;1757515;79;25770;-77
2021/01/25 04:47:22;;;;;;;24.35;16.35;;;;;;;2.13;84.21;98652.33;1755718;79;25912;-78
2021/01/25 04:49:51;;;;;;;28.27;17.23;;;;;;;2.13;84.22;98661.34;1756270;80;25712;-77
2021/01/25 04:52:20;;;;;;;28.12;16.70;;;;;;;2.11;84.17;98659.39;1754372;79;25792;-78
2021/01/25 04:54:47;;;;;;;28.23;18.02;;;;;;;2.12;84.19;98656.64;1755246;79;33207;-78
2021/01/25 04:57:17;;;;;;;26.68;17.05;;;;;;;2.11;84.12;98654.23;1740991;80;25982;-77
2021/01/25 04:59:48;;;;;;;28.05;18.45;;;;;;;2.06;84.21;98641.00;1755006;79;26041;-78
2021/01/25 05:02:15;;;;;;;30.15;17.17;;;;;;;2.17;84.27;98660.87;1757618;79;26353;-77
2021/01/25 05:04:41;;;;;;;27.32;17.50;;;;;;;2.21;84.23;98658.81;1754531;79;26661;-77
2021/01/25 05:07:08;;;;;;;29.75;18.50;;;;;;;2.22;84.30;98654.78;1756863;79;25725;-77
2021/01/25 05:09:34;;;;;;;34.92;18.98;;;;;;;2.21;84.18;98659.61;1757300;79;26376;-77
2021/01/25 05:12:04;;;;;;;30.27;18.65;;;;;;;2.18;84.08;98662.95;1755511;79;25875;-76
2021/01/25 05:14:44;;;;;;;28.30;16.77;;;;;;;2.15;84.07;98655.53;1758109;79;25467;-77
2021/01/25 05:17:15;;;;;;;24.75;16.73;;;;;;;2.14;84.08;98656.02;1760351;79;25543;-77
2021/01/25 05:19:46;;;;;;;23.35;15.18;;;;;;;2.02;84.14;98645.66;1757387;79;25932;-77
2021/01/25 05:22:21;;;;;;;25.97;15.48;;;;;;;2.02;84.14;98645.66;1754619;79;26052;-76
2021/01/25 05:24:50;;;;;;;28.60;17.95;;;;;;;2.16;84.03;98662.33;1754835;79;25684;-78
2021/01/25 05:27:28;;;;;;;30.35;19.85;;;;;;;2.19;84.08;98664.11;1767386;79;25697;-78
2021/01/25 05:30:08;;;;;;;28.80;19.23;;;;;;;2.21;83.97;98663.97;1782232;79;25574;-77
2021/01/25 05:32:51;;;;;;;24.63;16.73;;;;;;;2.22;83.94;98661.22;1755482;79;25684;-78
2021/01/25 05:35:25;;;;;;;31.57;18.40;;;;;;;2.20;83.84;98669.58;1691866;83;25906;-78
2021/01/25 05:38:04;;;;;;;26.68;17.87;;;;;;;2.17;83.99;98669.89;1693849;83;26901;-77
2021/01/25 05:40:34;;;;;;;26.23;17.07;;;;;;;2.17;84.02;98671.66;1691499;83;25874;-78
2021/01/25 05:43:03;;;;;;;29.57;17.67;;;;;;;2.15;84.00;98674.86;1692789;83;25622;-77
2021/01/25 05:45:30;;;;;;;27.87;17.73;;;;;;;2.16;84.13;98676.02;1687983;83;26057;-77
2021/01/25 05:47:59;;;;;;;25.25;16.73;;;;;;;2.18;84.15;98674.55;1665299;83;26380;-78
2021/01/25 05:50:41;;;;;;;30.77;17.87;;;;;;;2.18;83.91;98679.25;1679360;83;25813;-78
2021/01/25 05:53:10;;;;;;;25.68;17.23;;;;;;;2.21;83.92;98676.85;1691123;83;26177;-78
2021/01/25 05:55:37;;;;;;;26.70;17.98;;;;;;;2.14;83.81;98648.78;1644982;83;25654;-77
2021/01/25 05:58:05;;;;;;;32.83;18.60;;;;;;;2.14;83.81;98648.78;1651731;85;25624;-77
2021/01/25 06:00:33;;;;;;;29.82;18.35;;;;;;;2.29;83.75;98674.31;1685057;83;25850;-78
2021/01/25 06:03:01;;;;;;;27.75;17.90;;;;;;;2.25;83.81;98669.13;1690552;83;25895;-76
2021/01/25 06:05:35;;;;;;;27.02;17.75;;;;;;;2.25;83.81;98669.13;1684849;83;26053;-78
2021/01/25 06:08:24;;;;;;;28.95;18.92;;;;;;;2.22;83.94;98665.57;1689238;83;26605;-77
2021/01/25 06:11:28;;;;;;;28.92;18.90;;;;;;;2.22;83.84;98669.44;1664717;83;25874;-77
2021/01/25 06:14:19;;;;;;;25.77;17.98;;;;;;;2.22;83.84;98669.44;1715045;81;25703;-77
2021/01/25 06:16:49;;;;;;;26.02;17.32;;;;;;;2.21;83.82;98672.50;1723851;81;26173;-77
2021/01/25 06:19:20;;;;;;;30.72;20.02;;;;;;;2.25;83.96;98679.92;1724586;81;25719;-77
2021/01/25 06:21:47;;;;;;;26.80;18.37;;;;;;;2.25;83.96;98679.92;1705984;81;25842;-77
2021/01/25 06:24:15;;;;;;;30.02;19.55;;;;;;;2.26;83.84;98675.89;1669430;83;25874;-77
2021/01/25 06:26:45;;;;;;;29.75;20.30;;;;;;;2.31;83.98;98679.30;1699141;82;25671;-77
2021/01/25 06:29:11;;;;;;;28.40;19.02;;;;;;;2.33;84.04;98677.39;1697004;82;25829;-78
2021/01/25 06:31:41;;;;;;;30.45;20.62;;;;;;;2.36;84.00;98680.94;1692170;81;26607;-77
2021/01/25 06:34:12;;;;;;;33.20;21.15;;;;;;;2.35;83.87;98675.47;1734282;81;25369;-78
2021/01/25 06:36:41;;;;;;;29.92;20.55;;;;;;;2.28;83.72;98676.55;1733861;80;26526;-77
2021/01/25 06:39:11;;;;;;;26.70;17.43;;;;;;;2.26;83.75;98682.81;1732449;80;26501;-78
2021/01/25 06:41:42;;;;;;;26.12;17.20;;;;;;;2.26;83.88;98684.91;1736298;81;25574;-77
2021/01/25 06:44:11;;;;;;;25.52;17.35;;;;;;;2.27;83.87;98683.16;1734843;81;25738;-76
2021/01/25 06:46:39;;;;;;;27.05;17.70;;;;;;;2.28;83.76;98691.21;1741316;80;25657;-77
2021/01/25 06:49:08;;;;;;;26.73;18.48;;;;;;;2.30;83.80;98696.55;1779517;78;26479;-77
2021/01/25 06:51:43;;;;;;;29.00;18.37;;;;;;;2.34;83.91;98695.27;1782947;78;25547;-77
2021/01/25 06:54:12;;;;;;;36.65;20.60;;;;;;;2.36;84.05;98693.83;1782792;78;25614;-78
2021/01/25 06:56:59;;;;;;;43.78;24.15;;;;;;;2.36;84.05;98693.83;1781560;80;25617;-78
2021/01/25 06:59:32;;;;;;;52.48;24.92;;;;;;;2.38;83.74;98700.45;1776534;78;25881;-77
2021/01/25 07:01:59;;;;;;;51.28;25.62;;;;;;;2.23;83.60;98683.44;1781496;78;26525;-77
2021/01/25 07:04:29;;;;;;;61.42;28.92;;;;;;;2.23;83.60;98683.44;1754209;79;26412;-78
2021/01/25 07:06:56;;;;;;;51.90;25.70;;;;;;;2.35;83.87;98705.11;1775123;78;25802;-77
2021/01/25 07:09:32;;;;;;;50.45;26.97;;;;;;;2.34;83.61;98709.92;1777368;78;25799;-77
2021/01/25 07:12:02;;;;;;;41.45;22.65;;;;;;;2.20;83.24;98685.52;1774660;78;25847;-78
2021/01/25 07:14:32;;;;;;;45.43;24.40;;;;;;;2.25;83.30;98714.23;1778269;78;25626;-77
2021/01/25 07:17:00;;;;;;;47.85;25.00;;;;;;;2.21;83.31;98703.91;1781806;78;25485;-77
2021/01/25 07:19:27;;;;;;;41.92;24.12;;;;;;;2.19;83.38;98708.41;1742002;80;25648;-79
2021/01/25 07:21:55;;;;;;;37.38;23.83;;;;;;;2.17;83.42;98703.88;1749955;80;25975;-78
2021/01/25 07:24:27;;;;;;;40.98;24.82;;;;;;;1.99;83.13;98682.02;1753008;80;25793;-78
2021/01/25 07:26:56;;;;;;;40.17;26.62;;;;;;;2.07;83.43;98709.61;1751624;80;26417;-79
2021/01/25 07:29:23;;;;;;;44.03;26.20;;;;;;;2.04;83.58;98701.70;1739301;80;26139;-78
2021/01/25 07:31:52;;;;;;;42.90;26.90;;;;;;;2.01;83.50;98708.44;1737267;80;25833;-78
2021/01/25 07:34:19;;;;;;;43.73;27.80;;;;;;;1.78;83.84;98696.55;1758968;80;25753;-78
2021/01/25 07:36:45;;;;;;;48.38;31.50;;;;;;;1.78;83.84;98696.55;1768824;79;25812;-78
2021/01/25 07:39:15;;;;;;;54.15;34.13;;;;;;;1.74;83.64;98694.73;1768626;80;25729;-78
2021/01/25 07:41:43;;;;;;;53.23;33.08;;;;;;;1.86;83.79;98706.91;1768439;79;26604;-76
2021/01/25 07:44:12;;;;;;;51.37;30.43;;;;;;;1.85;83.67;98710.42;1771127;80;25917;-77
2021/01/25 07:46:39;;;;;;;51.77;30.88;;;;;;;1.68;83.84;98686.32;1771106;80;25721;-77
2021/01/25 07:49:06;;;;;;;49.63;30.32;;;;;;;1.73;84.21;98685.88;1766654;79;25744;-76
2021/01/25 07:51:34;;;;;;;50.48;30.57;;;;;;;1.73;84.21;98685.88;1769019;79;26366;-77
2021/01/25 07:54:02;;;;;;;50.43;27.87;;;;;;;1.84;83.96;98696.42;1747810;80;25525;-77
2021/01/25 07:56:29;;;;;;;43.50;27.80;;;;;;;1.83;84.20;98709.78;1726006;81;26447;-77
2021/01/25 07:59:16;;;;;;;42.60;26.93;;;;;;;1.83;84.20;98709.78;1767285;80;26532;-76
2021/01/25 08:01:56;;;;;;;39.65;25.02;;;;;;;1.86;84.17;98709.48;1770346;79;26324;-77
2021/01/25 08:04:27;;;;;;;;;;;;;;;1.90;84.12;98717.70;1771462;79;26501;-77
2021/01/25 08:06:57;;;;;;;35.98;22.45;;;;;;;1.93;84.19;98710.48;1764241;79;25758;-76
2021/01/25 08:09:24;;;;;;;37.03;23.00;;;;;;;1.94;84.04;98719.04;1767651;79;26058;-78
2021/01/25 08:11:53;;;;;;;37.08;23.35;;;;;;;1.97;84.11;98720.02;1770052;79;25730;-77
2021/01/25 08:14:28;;;;;;;37.80;23.55;;;;;;;1.97;83.98;98719.54;1769458;79;25345;-77
2021/01/25 08:17:02;;;;;;;35.15;24.37;;;;;;;2.00;84.00;98723.09;1764162;80;26506;-78
2021/01/25 08:19:46;;;;;;;38.00;24.57;;;;;;;1.92;84.00;98715.31;1765032;79;26333;-79
2021/01/25 08:22:24;;;;;;;38.78;24.67;;;;;;;1.97;83.91;98728.56;1768105;80;25854;-77
2021/01/25 08:25:01;;;;;;;40.33;25.23;;;;;;;1.85;83.57;98725.08;1764427;80;26466;-78
2021/01/25 08:27:29;;;;;;;39.33;23.10;;;;;;;1.83;83.86;98726.98;1768651;80;25811;-76
2021/01/25 08:30:11;;;;;;;45.30;27.22;;;;;;;1.71;83.97;98710.48;1714522;81;25685;-78
2021/01/25 08:32:47;;;;;;;39.98;26.95;;;;;;;1.71;83.97;98710.48;1705475;81;25957;-76
2021/01/25 08:35:18;;;;;;;37.70;24.30;;;;;;;1.85;84.03;98721.20;1713417;81;25593;-76
2021/01/25 08:37:44;;;;;;;37.83;23.80;;;;;;;1.89;83.78;98725.12;1715849;81;25833;-77
2021/01/25 08:40:22;;;;;;;37.40;22.82;;;;;;;1.89;83.78;98725.12;1755905;80;25765;-76
2021/01/25 08:42:49;;;;;;;30.00;19.85;;;;;;;1.86;83.65;98727.52;1757090;80;25752;-78
2021/01/25 08:45:29;;;;;;;29.12;20.08;;;;;;;1.78;83.47;98725.68;1752959;80;25926;-78
2021/01/25 08:48:08;;;;;;;31.62;20.88;;;;;;;1.77;83.65;98731.80;1693314;83;26644;-76
2021/01/25 08:50:36;;;;;;;32.13;19.57;;;;;;;1.76;83.67;98725.49;1681525;84;25515;-76
2021/01/25 08:53:08;;;;;;;28.95;19.42;;;;;;;1.60;83.78;98711.20;1692339;83;25633;-78
2021/01/25 08:55:47;;;;;;;35.88;21.33;;;;;;;1.68;83.68;98718.99;1690350;82;25803;-77
2021/01/25 08:58:25;;;;;;;34.80;19.73;;;;;;;1.67;83.57;98731.06;1690135;82;25467;-77
2021/01/25 09:00:52;;;;;;;31.07;19.98;;;;;;;1.66;83.67;98730.72;1686465;83;25555;-77
2021/01/25 09:03:23;;;;;;;31.55;20.52;;;;;;;1.69;83.76;98729.16;1687678;83;25481;-76
2021/01/25 09:05:56;;;;;;;36.83;22.37;;;;;;;1.73;83.83;98730.47;1688034;82;25972;-76
2021/01/25 09:08:24;;;;;;;31.60;21.23;;;;;;;1.80;83.94;98728.12;1651328;85;25900;-78
2021/01/25 09:10:50;;;;;;;26.82;18.12;;;;;;;1.84;83.79;98729.91;1646231;85;26010;-77
2021/01/25 09:13:16;;;;;;;30.82;20.50;;;;;;;1.82;83.63;98730.05;1613095;86;25632;-77
2021/01/25 09:15:43;;;;;;;35.63;21.25;;;;;;;1.75;83.52;98736.77;1630663;85;26211;-78
2021/01/25 09:18:11;;;;;;;29.90;20.15;;;;;;;1.70;83.58;98741.55;1625039;85;25941;-78
2021/01/25 09:20:37;;;;;;;34.18;20.90;;;;;;;1.72;83.69;98741.73;1630373;85;25684;-78
2021/01/25 09:23:04;;;;;;;33.02;19.62;;;;;;;1.73;83.73;98743.34;1643320;86;25960;-78
2021/01/25 09:25:31;;;;;;;35.17;20.68;;;;;;;1.77;83.77;98748.54;1622452;86;26418;-77
2021/01/25 09:27:58;;;;;;;37.33;22.75;;;;;;;1.80;83.72;98746.15;1644566;85;25971;-77
2021/01/25 09:30:30;;;;;;;33.53;22.80;;;;;;;1.83;83.77;98754.03;1668120;84;25839;-77
2021/01/25 09:32:54;;;;;;;30.05;20.55;;;;;;;1.84;83.62;98753.09;1673226;84;25793;-78
2021/01/25 09:35:22;;;;;;;30.25;19.37;;;;;;;1.82;83.52;98755.80;1641906;84;25658;-77
2021/01/25 09:37:48;;;;;;;30.48;19.02;;;;;;;1.77;83.53;98754.98;1629054;86;25899;-78
2021/01/25 09:40:16;;;;;;;30.72;20.02;;;;;;;1.75;83.56;98753.50;1632029;85;25645;-78
2021/01/25 09:42:43;;;;;;;31.15;18.98;;;;;;;1.58;83.55;98719.55;1626921;84;25663;-78
2021/01/25 09:45:15;;;;;;;29.10;19.35;;;;;;;1.75;83.72;98747.88;1650572;85;26336;-78
2021/01/25 09:47:42;;;;;;;29.42;19.00;;;;;;;1.75;83.72;98747.88;1650784;84;25570;-78
2021/01/25 09:50:12;;;;;;;29.40;18.65;;;;;;;1.79;83.70;98750.95;1634115;85;25644;-79
2021/01/25 09:52:39;;;;;;;34.33;21.40;;;;;;;1.76;83.46;98735.80;1608361;87;25615;-78
2021/01/25 09:55:07;;;;;;;27.67;18.23;;;;;;;1.70;83.16;98732.53;1659356;84;25621;-77
2021/01/25 09:57:33;;;;;;;26.55;18.12;;;;;;;1.66;83.48;98731.20;1618568;86;26453;-78
2021/01/25 10:00:00;;;;;;;30.25;18.15;;;;;;;1.67;83.43;98741.85;1632305;85;26085;-77
2021/01/25 10:02:26;;;;;;;26.57;16.35;;;;;;;1.62;83.37;98744.86;1661209;84;25993;-78
2021/01/25 10:04:53;;;;;;;26.85;16.70;;;;;;;1.55;83.46;98743.81;1668644;82;25833;-77
2021/01/25 10:07:19;;;;;;;31.80;18.73;;;;;;;1.59;83.73;98750.80;1696124;82;25928;-79
2021/01/25 10:09:45;;;;;;;22.90;15.75;;;;;;;1.65;83.75;98751.48;1734443;80;26595;-78
2021/01/25 10:12:12;;;;;;;28.00;18.73;;;;;;;1.65;83.63;98751.48;1781513;78;25799;-78
2021/01/25 10:14:38;;;;;;;28.80;17.77;;;;;;;1.63;83.54;98745.66;1780499;78;26324;-78
2021/01/25 10:17:04;;;;;;;27.93;16.27;;;;;;;1.65;83.68;98743.76;1779891;78;26034;-77
2021/01/25 10:19:31;;;;;;;24.47;16.20;;;;;;;1.68;83.70;98734.45;1750712;80;25763;-77
2021/01/25 10:21:57;;;;;;;25.97;15.20;;;;;;;1.66;83.58;98730.72;1745289;80;25848;-77
2021/01/25 10:24:23;;;;;;;28.60;18.42;;;;;;;1.64;83.53;98730.08;1750036;80;25774;-77
2021/01/25 10:26:50;;;;;;;26.87;17.75;;;;;;;1.65;83.73;98728.30;1719021;81;25716;-77
2021/01/25 10:29:16;;;;;;;26.27;16.70;;;;;;;1.68;83.79;98724.95;1721280;81;25894;-77
2021/01/25 10:31:42;;;;;;;28.50;19.10;;;;;;;1.69;83.54;98734.77;1719163;81;26428;-77
2021/01/25 10:34:09;;;;;;;28.85;18.95;;;;;;;1.54;83.38;98719.84;1731793;80;25836;-78
2021/01/25 10:36:35;;;;;;;27.73;16.87;;;;;;;1.65;83.59;98730.39;1730674;80;26085;-76
2021/01/25 10:39:01;;;;;;;25.70;17.02;;;;;;;1.64;83.41;98731.36;1715286;82;26016;-78
2021/01/25 10:41:28;;;;;;;26.87;17.45;;;;;;;1.63;83.43;98723.29;1717740;82;25840;-77
2021/01/25 10:43:54;;;;;;;26.17;15.55;;;;;;;1.64;83.33;98734.42;1725270;82;25818;-76
2021/01/25 10:46:20;;;;;;;24.70;17.23;;;;;;;1.63;83.33;98730.21;1713116;81;26808;-76
2021/01/25 10:48:47;;;;;;;26.85;17.87;;;;;;;1.62;83.42;98726.03;1719314;80;26746;-77
2021/01/25 10:51:14;;;;;;;27.60;17.10;;;;;;;1.62;83.39;98729.89;1730828;80;25903;-77
2021/01/25 10:53:43;;;;;;;23.45;14.68;;;;;;;1.61;83.42;98724.39;1734135;80;25961;-76
2021/01/25 10:56:09;;;;;;;31.50;20.60;;;;;;;1.59;83.48;98727.13;1731693;80;26247;-76
2021/01/25 10:58:37;;;;;;;32.40;21.45;;;;;;;1.55;83.54;98725.34;1713350;81;27057;-77
2021/01/25 11:01:04;;;;;;;29.45;20.55;;;;;;;1.55;83.67;98730.95;1734645;80;26441;-78
2021/01/25 11:03:30;;;;;;;27.95;19.17;;;;;;;1.54;83.82;98731.43;1731425;80;25908;-78
2021/01/25 11:05:56;;;;;;;29.80;19.17;;;;;;;1.56;83.84;98728.72;1730538;80;25345;-77
2021/01/25 11:08:22;;;;;;;28.70;18.15;;;;;;;1.56;83.81;98733.88;1734633;80;25810;-78
2021/01/25 11:10:49;;;;;;;28.85;18.67;;;;;;;1.54;83.76;98735.77;1675396;83;25789;-78
2021/01/25 11:13:15;;;;;;;33.23;19.48;;;;;;;1.50;83.81;98731.86;1706228;82;25793;-77
2021/01/25 11:15:41;;;;;;;27.22;17.48;;;;;;;1.52;83.91;98726.09;1688791;83;25797;-77
2021/01/25 11:18:08;;;;;;;28.12;18.60;;;;;;;1.56;83.93;98722.28;1718989;81;25778;-77
2021/01/25 11:20:34;;;;;;;30.55;20.23;;;;;;;1.59;84.02;98718.13;1729004;80;25834;-77
2021/01/25 11:23:00;;;;;;;32.53;20.72;;;;;;;1.63;84.04;98722.48;1732125;80;25632;-76
2021/01/25 11:25:27;;;;;;;30.30;18.90;;;;;;;1.67;84.15;98718.67;1735308;80;25808;-77
2021/01/25 11:27:53;;;;;;;28.05;18.23;;;;;;;1.63;84.10;98711.70;1734636;80;25922;-78
2021/01/25 11:30:22;;;;;;;28.77;18.17;;;;;;;1.63;84.10;98711.70;1748758;79;26665;-77
2021/01/25 11:32:48;;;;;;;29.27;18.62;;;;;;;1.62;84.01;98708.00;1756843;80;25741;-77
2021/01/25 11:35:14;;;;;;;26.02;16.65;;;;;;;1.54;83.99;98708.26;1756684;79;25774;-76